Eneas Marques, Brazil
Current Conditions -  °F | °C
As of 10:00 AM on Sunday 23 Nov 2014 (Local Time) from SARI Reporting Station
Clear Clear  
Wind Chill: 73°   Ceiling: Unl
Heat Index: 73°   Visibility: 6mi
Dew Point: 61°   Wind: 3mph
Humidity: 65%   Direction: 140°SE
Pressure: 30"   Gusts: NA
Location:  25.94°S, 53.16°W
Report Text: SARI 231200Z 14003KT CAVOK 23/16 Q1016
Loading
Personal Weather Stations






























Interactive Weather Map New forecast layout! Learn more

10-Day Weather Forecast

Advertisements
Track Severe Weather on mobile